Time,TemperatureF,DewpointF,PressureIn,WindDirection,WindDirectionDegrees,WindSpeedMPH,WindSpeedGustMPH,Humidity,HourlyPrecipIn,Conditions,Clouds,dailyrainin,SoftwareType,DateUTC
2013-04-17 00:02:00,34.0,-99.9,-100.00,NNW,331,5.0,5.0,-999,-99.99,,,-99.99,,2013-04-17 07:02:00,
2013-04-17 00:12:00,34.0,-99.9,-100.00,NNW,331,5.0,5.0,-999,-99.99,,,-99.99,,2013-04-17 07:12:00,
2013-04-17 01:02:00,29.0,-99.9,-100.00,North,360,5.0,6.0,-999,-99.99,,,-99.99,,2013-04-17 08:02:00,
2013-04-17 01:12:00,29.0,-99.9,-100.00,North,360,5.0,6.0,-999,-99.99,,,-99.99,,2013-04-17 08:12:00,
2013-04-17 02:02:00,27.0,-99.9,-100.00,NNE,20,7.0,8.0,-999,-99.99,,,-99.99,,2013-04-17 09:02:00,
2013-04-17 02:12:00,27.0,-99.9,-100.00,NNE,20,7.0,8.0,-999,-99.99,,,-99.99,,2013-04-17 09:12:00,
2013-04-17 03:03:00,29.0,-99.9,-100.00,North,356,3.0,6.0,-999,-99.99,,,-99.99,,2013-04-17 10:03:00,
2013-04-17 03:13:00,29.0,-99.9,-100.00,North,356,3.0,6.0,-999,-99.99,,,-99.99,,2013-04-17 10:13:00,
2013-04-17 04:02:00,28.0,-99.9,-100.00,North,11,3.0,3.0,-999,-99.99,,,-99.99,,2013-04-17 11:02:00,
2013-04-17 04:12:00,28.0,-99.9,-100.00,North,11,3.0,3.0,-999,-99.99,,,-99.99,,2013-04-17 11:12:00,
2013-04-17 05:03:00,29.0,-99.9,-100.00,North,10,3.0,3.0,-999,-99.99,,,-99.99,,2013-04-17 12:03:00,
2013-04-17 05:12:00,29.0,-99.9,-100.00,North,10,3.0,3.0,-999,-99.99,,,-99.99,,2013-04-17 12:12:00,
2013-04-17 06:02:00,25.0,-99.9,-100.00,North,355,1.0,3.0,-999,-99.99,,,-99.99,,2013-04-17 13:02:00,
2013-04-17 06:12:00,25.0,-99.9,-100.00,North,355,1.0,3.0,-999,-99.99,,,-99.99,,2013-04-17 13:12:00,
2013-04-17 07:02:00,29.0,-99.9,-100.00,NE,56,3.0,7.0,-999,-99.99,,,-99.99,,2013-04-17 14:02:00,
2013-04-17 07:12:00,29.0,-99.9,-100.00,NE,56,3.0,7.0,-999,-99.99,,,-99.99,,2013-04-17 14:12:00,
2013-04-17 08:02:00,33.0,-99.9,-100.00,ENE,59,3.0,6.0,-999,-99.99,,,-99.99,,2013-04-17 15:02:00,
2013-04-17 08:12:00,33.0,-99.9,-100.00,ENE,59,3.0,6.0,-999,-99.99,,,-99.99,,2013-04-17 15:12:00,
2013-04-17 09:03:00,40.0,-99.9,-100.00,ENE,59,3.0,7.0,-999,-99.99,,,-99.99,,2013-04-17 16:03:00,
2013-04-17 09:13:00,40.0,-99.9,-100.00,ENE,59,3.0,7.0,-999,-99.99,,,-99.99,,2013-04-17 16:13:00,
2013-04-17 10:02:00,43.0,-99.9,-100.00,SSE,148,2.0,3.0,-999,-99.99,,,-99.99,,2013-04-17 17:02:00,
2013-04-17 10:13:00,43.0,-99.9,-100.00,SSE,148,2.0,3.0,-999,-99.99,,,-99.99,,2013-04-17 17:13:00,
2013-04-17 11:02:00,49.0,-99.9,-100.00,ESE,107,2.0,6.0,-999,-99.99,,,-99.99,,2013-04-17 18:02:00,
2013-04-17 11:12:00,49.0,-99.9,-100.00,ESE,107,2.0,6.0,-999,-99.99,,,-99.99,,2013-04-17 18:12:00,
2013-04-17 12:03:00,52.0,-99.9,-100.00,South,185,3.0,8.0,-999,-99.99,,,-99.99,,2013-04-17 19:03:00,
2013-04-17 12:12:00,52.0,-99.9,-100.00,South,185,3.0,8.0,-999,-99.99,,,-99.99,,2013-04-17 19:12:00,
2013-04-17 13:03:00,55.0,-99.9,-100.00,SE,141,6.0,12.0,-999,-99.99,,,-99.99,,2013-04-17 20:03:00,
2013-04-17 13:12:00,55.0,-99.9,-100.00,SE,141,6.0,12.0,-999,-99.99,,,-99.99,,2013-04-17 20:12:00,
2013-04-17 14:03:00,57.0,-99.9,-100.00,SSE,162,8.0,14.0,-999,-99.99,,,-99.99,,2013-04-17 21:03:00,
2013-04-17 14:13:00,57.0,-99.9,-100.00,SSE,162,8.0,14.0,-999,-99.99,,,-99.99,,2013-04-17 21:13:00,
2013-04-17 15:02:00,59.0,-99.9,-100.00,South,182,9.0,15.0,-999,-99.99,,,-99.99,,2013-04-17 22:02:00,
2013-04-17 15:13:00,59.0,-99.9,-100.00,South,182,9.0,15.0,-999,-99.99,,,-99.99,,2013-04-17 22:13:00,
2013-04-17 16:02:00,60.0,-99.9,-100.00,East,91,7.0,14.0,-999,-99.99,,,-99.99,,2013-04-17 23:02:00,
2013-04-17 16:12:00,60.0,-99.9,-100.00,East,91,7.0,14.0,-999,-99.99,,,-99.99,,2013-04-17 23:12:00,
2013-04-17 17:02:00,61.0,-99.9,-100.00,SW,221,6.0,12.0,-999,-99.99,,,-99.99,,2013-04-18 00:02:00,
2013-04-17 17:12:00,61.0,-99.9,-100.00,SW,221,6.0,12.0,-999,-99.99,,,-99.99,,2013-04-18 00:12:00,
2013-04-17 18:02:00,60.0,-99.9,-100.00,SW,218,8.0,18.0,-999,-99.99,,,-99.99,,2013-04-18 01:02:00,
2013-04-17 18:12:00,60.0,-99.9,-100.00,SW,218,8.0,18.0,-999,-99.99,,,-99.99,,2013-04-18 01:12:00,
2013-04-17 19:02:00,59.0,-99.9,-100.00,South,174,7.0,10.0,-999,-99.99,,,-99.99,,2013-04-18 02:02:00,
2013-04-17 19:12:00,59.0,-99.9,-100.00,South,174,7.0,10.0,-999,-99.99,,,-99.99,,2013-04-18 02:12:00,
2013-04-17 20:02:00,58.0,-99.9,-100.00,SSW,208,10.0,14.0,-999,-99.99,,,-99.99,,2013-04-18 03:02:00,
2013-04-17 20:12:00,58.0,-99.9,-100.00,SSW,208,10.0,14.0,-999,-99.99,,,-99.99,,2013-04-18 03:12:00,
2013-04-17 21:03:00,54.0,-99.9,-100.00,SSE,160,8.0,10.0,-999,-99.99,,,-99.99,,2013-04-18 04:03:00,
2013-04-17 21:13:00,54.0,-99.9,-100.00,SSE,160,8.0,10.0,-999,-99.99,,,-99.99,,2013-04-18 04:13:00,
2013-04-17 22:02:00,55.0,-99.9,-100.00,West,268,12.0,20.0,-999,-99.99,,,-99.99,,2013-04-18 05:02:00,
2013-04-17 22:12:00,55.0,-99.9,-100.00,West,268,12.0,20.0,-999,-99.99,,,-99.99,,2013-04-18 05:12:00,
2013-04-17 23:02:00,54.0,-99.9,-100.00,NNW,329,8.0,12.0,-999,-99.99,,,-99.99,,2013-04-18 06:02:00,
2013-04-17 23:12:00,54.0,-99.9,-100.00,NNW,329,8.0,12.0,-999,-99.99,,,-99.99,,2013-04-18 06:12:00,